Latest Weather Observations for Casey*

IDT60801

Issued at 2:05 pm EDT Wednesday 26 November 2014 (issued every 30 minutes, with the page automatically refreshed every 10 minutes)

About weather observations | Map of weather stations | Latest weather observations for ANT | Other Formats
Station Details ID: 300017 Name: CASEY Lat: -66.28 Lon: 110.52 Height: 40.0 m
Data from the previous 72 hours. | See also: Recent months at Casey*
Date/Time
EDT
Temp
°C
App
Temp
°C
Dew
Point
Rel
Hum
%
Delta-T
°C
Wind Press
QNH
hPa
Press
MSL
hPa
Rain
since 9 am
mm
Dir
 
Spd
km/h
Gust
km/h
Spd
kts
Gust
kts
26/02:00pm -2.8 -7.1 -4.5 88 - NNW 9 11 5 6 993.3 - -
26/01:30pm -1.9 -5.7 -3.8 87 - SE 7 11 4 6 993.2 - -
26/01:00pm -2.4 -7.4 -4.0 89 - SSE 13 15 7 8 993.0 - -
26/12:30pm -2.3 -6.5 -3.9 89 - SSE 9 11 5 6 992.8 - -
26/12:00pm -2.3 -6.5 -4.2 87 - S 9 11 5 6 992.6 - -
26/11:30am -2.5 -6.8 -4.4 87 - SW 9 11 5 6 992.4 - -
26/11:00am -2.5 -7.5 -4.2 88 - W 13 17 7 9 992.2 992.5 -
26/10:30am -2.5 -8.6 -4.1 89 - NW 19 22 10 12 992.0 - -
26/10:00am -1.7 -10.4 -5.2 77 - NE 32 41 17 22 991.5 - -
26/09:30am -2.0 -12.0 -5.1 79 - NE 39 50 21 27 991.2 - -
26/09:00am -2.0 -13.4 -5.1 79 - ENE 46 54 25 29 990.5 - -
26/08:30am -2.2 -14.0 -5.3 79 - ENE 48 54 26 29 990.0 - -
26/08:00am -2.3 -14.0 -5.1 81 - ENE 48 54 26 29 989.7 990.0 -
26/07:30am -2.8 -14.5 -4.8 86 - ENE 48 56 26 30 989.3 - -
26/07:00am -3.0 -14.3 -5.0 86 - E 46 50 25 27 989.0 - -
26/06:30am -3.1 -14.1 -5.3 85 - E 44 50 24 27 988.7 - -
26/06:00am -3.4 -14.4 -5.2 87 - E 44 52 24 28 988.4 - -
26/05:30am -3.2 -15.4 -5.5 84 - E 50 59 27 32 988.2 - -
26/05:00am -2.8 -15.5 -6.9 73 - E 52 59 28 32 987.7 988.0 -
26/04:30am -2.5 -14.8 -7.0 71 - E 50 57 27 31 987.4 - -
26/04:00am -2.2 -14.2 -7.3 68 - E 48 54 26 29 987.2 - -
26/03:30am -2.4 -15.4 -6.4 74 - ENE 54 61 29 33 986.8 - -
26/03:00am -2.7 -16.1 -6.7 74 - E 56 63 30 34 986.4 - -
26/02:30am -2.4 -15.5 -7.3 69 - E 54 61 29 33 986.0 - -
26/02:00am -2.4 -15.5 -7.1 70 - E 54 61 29 33 985.8 986.1 -
26/01:30am -2.0 -14.7 -6.9 69 - E 52 61 28 33 985.8 - -
26/01:00am -2.1 -15.6 -7.4 67 - E 56 69 30 37 985.5 - -
26/12:30am -2.0 -16.4 -7.5 66 - E 61 70 33 38 985.2 - -
26/12:00am -2.1 -17.3 -7.2 68 - E 65 72 35 39 984.8 - -
 
Date/Time
EDT
Temp
°C
App
Temp
°C
Dew
Point
Rel
Hum
%
Delta-T
°C
Wind Press
QNH
hPa
Press
MSL
hPa
Rain
since 9 am
mm
Dir
 
Spd
km/h
Gust
km/h
Spd
kts
Gust
kts
25/11:30pm -2.1 -16.5 -7.2 68 - E 61 72 33 39 984.8 - -
25/11:00pm -1.8 -16.2 -6.9 68 - E 61 74 33 40 985.0 985.3 -
25/10:30pm -2.0 -17.1 -6.9 69 - E 65 76 35 41 984.8 - -
25/10:00pm -1.6 -15.9 -6.3 70 - E 61 72 33 39 984.8 - -
25/09:30pm -2.0 -16.0 -6.4 72 - E 59 67 32 36 985.0 - -
25/09:00pm -1.8 -16.5 -6.2 72 - E 63 72 34 39 984.6 - -
25/08:30pm -1.7 -16.4 -5.9 73 - E 63 72 34 39 984.5 - -
25/08:00pm -1.8 -16.1 -6.3 71 - E 61 72 33 39 984.4 984.7 -
25/07:30pm -2.0 -16.7 -6.4 72 - E 63 70 34 38 984.4 - -
25/07:00pm -1.7 -16.8 -6.4 70 - E 65 76 35 41 984.3 - -
25/06:30pm -1.5 -16.2 -6.2 70 - E 63 72 34 39 984.1 - -
25/06:00pm -1.7 -16.0 -6.4 70 - E 61 70 33 38 984.1 - -
25/05:30pm -1.6 -15.2 -6.7 68 - ENE 57 69 31 37 984.4 - -
25/05:00pm -1.4 -14.8 -6.3 69 - E 56 67 30 36 984.3 984.6 -
25/04:30pm -1.8 -16.5 -6.7 69 - E 63 76 34 41 984.3 - -
25/04:00pm -1.2 -15.5 -6.0 70 - E 61 74 33 40 984.2 - -
25/03:30pm -1.8 -17.7 -6.9 68 - E 69 80 37 43 984.0 - -
25/03:00pm -1.7 -17.6 -6.6 69 - E 69 80 37 43 983.8 - -
25/02:30pm -1.8 -17.7 -6.5 70 - E 69 78 37 42 983.9 - -
25/02:12pm -1.9 -17.8 -6.6 70 - E 69 87 37 47 984.0 - -
25/02:00pm -2.0 -18.1 -6.7 70 - E 70 87 38 47 983.9 984.2 -
25/01:30pm -2.1 -18.0 -6.8 70 - E 69 80 37 43 984.0 - -
25/01:00pm -2.2 -19.4 -6.7 71 - E 76 87 41 47 983.3 - -
25/12:30pm -3.0 -20.2 -7.0 74 - E 76 87 41 47 983.5 - -
25/12:00pm -3.1 -21.1 -7.1 74 - E 80 93 43 50 983.1 - -
25/11:30am -3.1 -20.0 -7.2 73 - E 74 89 40 48 983.1 - -
25/11:00am -3.1 -20.3 -6.9 75 - E 76 89 41 48 983.3 983.7 -
25/10:30am -2.9 -19.7 -6.5 76 - E 74 91 40 49 983.2 - -
25/10:00am -3.1 -20.7 -6.5 77 - E 78 93 42 50 982.8 - -
25/09:30am -3.1 -21.4 -6.5 77 - ENE 82 93 44 50 982.3 - -
25/09:00am -3.2 -21.5 -6.6 77 - ENE 82 96 44 52 982.1 - -
25/08:30am -3.2 -22.1 -6.6 77 - ENE 85 95 46 51 981.7 - -
25/08:00am -3.2 -22.8 -6.3 79 - ENE 89 107 48 58 981.4 981.8 -
25/07:33am -3.2 -22.4 -6.1 80 - ENE 87 109 47 59 981.0 - -
25/07:30am -3.3 -22.5 -6.1 81 - ENE 87 102 47 55 981.5 - -
25/07:21am -2.7 -21.2 -6.5 75 - ENE 83 102 45 55 981.1 - -
25/07:00am -3.2 -22.5 -6.3 79 - ENE 87 102 47 55 981.1 - -
25/06:51am -3.0 -23.0 -6.4 77 - ENE 91 109 49 59 980.8 - -
25/06:30am -3.3 -23.7 -6.1 81 - ENE 93 109 50 59 980.4 - -
25/06:17am -3.3 -23.3 -6.1 81 - ENE 91 111 49 60 980.6 - -
25/06:00am -3.4 -23.4 -6.2 81 - ENE 91 106 49 57 980.7 - -
25/05:30am -3.2 -23.2 -6.0 81 - ENE 91 113 49 61 980.1 - -
25/05:01am -3.5 -23.9 -6.1 82 - ENE 93 111 50 60 979.4 - -
25/05:00am -3.5 -24.3 -6.1 82 - ENE 95 111 51 60 979.6 980.0 -
25/04:30am -3.5 -25.2 -5.6 85 - ENE 100 115 54 62 979.0 - -
25/04:00am -3.8 -25.5 -5.8 86 - ENE 100 120 54 65 978.0 - -
25/03:31am -3.5 -24.8 -5.8 84 - ENE 98 119 53 64 978.4 - -
25/03:30am -3.5 -24.8 -5.8 84 - ENE 98 113 53 61 978.0 - -
25/03:16am -3.4 -23.4 -6.2 81 - ENE 91 111 49 60 979.2 - -
25/03:00am -3.6 -22.9 -6.2 82 - E 87 104 47 56 979.3 - -
25/02:38am -3.5 -24.3 -6.0 83 - E 95 113 51 61 979.0 - -
25/02:30am -3.6 -24.5 -5.7 85 - E 96 111 52 60 978.6 - -
25/02:00am -3.7 -25.0 -5.8 85 - E 98 113 53 61 978.8 979.2 -
25/01:32am -3.9 -25.6 -5.9 86 - E 100 119 54 64 978.1 - -
25/01:30am -3.9 -26.0 -5.9 86 - E 102 119 55 64 978.1 - -
25/01:03am -3.9 -25.6 -5.9 86 - ENE 100 119 54 64 978.2 - -
25/01:00am -3.9 -26.0 -5.9 86 - ENE 102 119 55 64 978.2 - -
25/12:30am -4.0 -26.1 -6.0 86 - ENE 102 124 55 67 977.8 - -
25/12:03am -4.1 -25.4 -6.1 86 - E 98 117 53 63 978.0 - -
25/12:00am -4.1 -25.4 -5.9 87 - E 98 113 53 61 977.9 - -
 
Date/Time
EDT
Temp
°C
App
Temp
°C
Dew
Point
Rel
Hum
%
Delta-T
°C
Wind Press
QNH
hPa
Press
MSL
hPa
Rain
since 9 am
mm
Dir
 
Spd
km/h
Gust
km/h
Spd
kts
Gust
kts
24/11:30pm -4.0 -25.3 -6.1 85 - ENE 98 117 53 63 978.4 - -
24/11:01pm -4.2 -24.2 -6.2 86 - E 91 111 49 60 978.7 - -
24/11:00pm -4.1 -24.1 -6.4 84 - E 91 106 49 57 978.9 979.3 -
24/10:32pm -3.7 -24.1 -6.2 83 - E 93 111 50 60 979.2 - -
24/10:30pm -3.7 -24.1 -6.2 83 - E 93 109 50 59 979.2 - -
24/10:00pm -3.6 -24.0 -6.2 82 - E 93 111 50 60 979.2 - -
24/09:30pm -3.6 -22.1 -6.1 83 - E 83 106 45 57 979.5 - -
24/09:24pm -3.5 -22.4 -6.3 81 - E 85 104 46 56 980.0 - -
24/09:00pm -3.3 -23.3 -6.4 79 - E 91 107 49 58 980.1 - -
24/08:30pm -3.5 -23.5 -6.4 80 - E 91 109 49 59 979.8 - -
24/08:06pm -3.4 -23.8 -6.3 80 - E 93 111 50 60 979.4 - -
24/08:00pm -3.6 -23.6 -6.5 80 - E 91 106 49 57 979.7 980.1 -
24/07:50pm -3.6 -23.2 -6.2 82 - E 89 107 48 58 979.6 - -
24/07:30pm -3.5 -23.9 -6.3 81 - E 93 109 50 59 979.6 - -
24/07:00pm -3.4 -21.7 -6.3 80 - E 82 98 44 53 980.1 - -
24/06:30pm -3.1 -20.7 -6.7 76 - E 78 96 42 52 980.6 - -
24/06:28pm -3.0 -20.6 -6.4 77 - E 78 96 42 52 980.7 - -
24/06:00pm -3.0 -21.0 -6.6 76 - E 80 95 43 51 980.9 - -
24/05:30pm -2.9 -21.5 -7.0 73 - E 83 102 45 55 981.2 - -
24/05:22pm -3.1 -21.7 -6.9 75 - E 83 102 45 55 981.2 - -
24/05:00pm -3.1 -21.4 -6.5 77 - E 82 95 44 51 981.4 981.8 -
24/04:30pm -3.4 -22.3 -6.8 77 - ENE 85 100 46 54 981.1 - -
24/04:07pm -3.6 -22.5 -6.9 78 - ENE 85 104 46 56 981.2 - -
24/04:00pm -3.5 -22.1 -6.8 78 - ENE 83 98 45 53 981.3 - -
24/03:41pm -3.5 -21.9 -7.1 76 - ENE 82 100 44 54 981.5 - -
24/03:30pm -3.6 -21.2 -7.0 77 - E 78 89 42 48 981.8 - -
24/03:00pm -3.6 -20.5 -7.5 74 - E 74 87 40 47 982.4 - -
24/02:30pm -3.6 -20.9 -7.5 74 - E 76 89 41 48 982.7 - -
24/02:00pm -3.8 -21.1 -7.6 75 - E 76 91 41 49 982.8 983.2 -
24/01:30pm -4.0 -21.7 -7.8 75 - ENE 78 91 42 49 983.0 - -
24/01:00pm -3.9 -22.0 -7.8 74 - ENE 80 95 43 51 983.1 - -
24/12:30pm -3.5 -19.4 -7.3 75 - ENE 69 82 37 44 984.1 - -
24/12:00pm -3.0 -16.7 -7.3 72 - ENE 57 70 31 38 985.1 - -
24/11:30am -2.8 -15.5 -7.3 71 - ENE 52 65 28 35 985.4 - -
24/11:00am -2.7 -15.1 -7.6 69 - ENE 50 57 27 31 985.5 985.8 -
24/10:30am -2.9 -16.0 -7.0 73 - ENE 54 65 29 35 985.4 - -
24/10:00am -3.0 -16.1 -7.1 73 - ENE 54 69 29 37 985.7 - -
24/09:30am -3.1 -16.2 -7.4 72 - ENE 54 69 29 37 985.7 - -
24/09:00am -3.1 -16.2 -6.9 75 - ENE 54 63 29 34 985.9 - -
24/08:30am -2.9 -15.6 -6.9 74 - ENE 52 59 28 32 985.9 - -
24/08:00am -2.8 -14.7 -6.9 73 - ENE 48 56 26 30 985.9 986.2 -
24/07:30am -2.7 -15.0 -6.9 73 - ENE 50 59 27 32 985.7 - -
24/07:00am -2.6 -13.8 -6.9 72 - ENE 44 54 24 29 985.9 - -
24/06:30am -2.9 -13.8 -6.4 77 - ENE 43 54 23 29 986.2 - -
24/06:00am -3.0 -13.6 -6.6 76 - ENE 41 50 22 27 986.3 - -
24/05:30am -2.8 -13.0 -6.4 76 - ENE 39 46 21 25 986.5 - -
24/05:00am -2.8 -12.6 -6.3 77 - ENE 37 46 20 25 986.7 987.0 -
24/04:30am -2.9 -10.5 -6.0 79 - NE 26 35 14 19 987.1 - -
24/04:00am -3.0 -8.2 -6.1 79 - NNW 13 20 7 11 987.3 - -
24/03:30am -3.7 -8.1 -6.3 82 - NNW 9 13 5 7 987.6 - -
24/03:00am -4.7 -8.9 -7.9 78 - S 7 11 4 6 987.8 - -
24/02:30am -5.0 -9.6 -8.4 77 - S 9 13 5 7 988.0 - -
24/02:00am -5.3 -9.8 -7.3 86 - S 9 9 5 5 988.1 988.4 -
24/01:30am -5.3 -9.5 -7.4 85 - SE 7 9 4 5 988.2 - -
24/01:00am -5.0 -8.2 -7.3 84 - NNE 2 7 1 4 988.4 - -
24/12:30am -5.1 -9.3 -7.5 83 - N 7 9 4 5 988.6 - -
24/12:00am -5.1 -10.0 -7.4 84 - N 11 13 6 7 988.6 - -
 
Date/Time
EDT
Temp
°C
App
Temp
°C
Dew
Point
Rel
Hum
%
Delta-T
°C
Wind Press
QNH
hPa
Press
MSL
hPa
Rain
since 9 am
mm
Dir
 
Spd
km/h
Gust
km/h
Spd
kts
Gust
kts
23/11:30pm -4.6 -9.4 -10.7 62 - SSE 9 11 5 6 988.6 - -
23/11:00pm -4.6 -9.7 -9.8 67 - SSE 11 13 6 7 988.7 989.0 -
23/10:30pm -4.6 -9.7 -9.6 68 - SSE 11 13 6 7 988.7 - -
23/10:00pm -4.5 -9.9 -8.9 71 - SSE 13 15 7 8 988.9 - -
23/09:30pm -4.3 -9.4 -9.5 67 - SE 11 15 6 8 988.9 - -
23/09:00pm -4.1 -10.1 -6.4 84 - NNE 17 20 9 11 989.1 - -
23/08:30pm -4.2 -11.6 -7.0 81 - N 24 26 13 14 989.3 - -
23/08:00pm -3.8 -10.4 -6.6 81 - N 20 26 11 14 989.2 989.5 -
23/07:30pm -4.0 -11.4 -7.4 77 - N 24 30 13 16 988.7 - -
23/07:00pm -3.9 -12.1 -7.7 75 - N 28 33 15 18 988.5 - -
23/06:30pm -3.8 -11.3 -8.8 68 - N 24 30 13 16 988.5 - -
23/06:00pm -3.8 -11.1 -11.5 55 - N 22 28 12 15 988.5 - -
23/05:30pm -3.8 -11.5 -11.7 54 - N 24 32 13 17 988.5 - -

Other Formats:

Comma delimited format used in spreadsheet applications
http://www.bom.gov.au/fwo/IDT60803/IDT60803.89611.axf

JavaScript Object Notation format (JSON) in row-major order
http://www.bom.gov.au/fwo/IDT60803/IDT60803.89611.json